createdAt,value
2023-02-22T05:07:49.152Z,4.12
2023-02-22T05:10:16.009Z,4.16
2023-02-22T05:12:42.458Z,4.28
2023-02-22T05:15:09.683Z,4.37
2023-02-22T05:17:36.121Z,4.39
2023-02-22T05:20:03.771Z,4.54
2023-02-22T05:22:30.208Z,4.60
2023-02-22T05:24:56.499Z,4.61
2023-02-22T05:27:23.200Z,4.61
2023-02-22T05:29:49.500Z,4.61
2023-02-22T05:32:15.908Z,4.61
2023-02-22T05:34:42.265Z,4.52
2023-02-22T05:37:08.593Z,4.55
2023-02-22T05:39:34.891Z,4.53
2023-02-22T05:42:01.229Z,4.57
2023-02-22T05:44:27.627Z,4.54
2023-02-22T05:46:53.943Z,4.49
2023-02-22T05:49:20.270Z,4.40
2023-02-22T05:51:46.566Z,4.52
2023-02-22T05:54:12.937Z,4.60
2023-02-22T05:56:39.197Z,4.55
2023-02-22T05:59:05.536Z,4.64
2023-02-22T06:01:32.112Z,4.61
2023-02-22T06:03:58.438Z,4.67
2023-02-22T06:06:24.752Z,4.65
2023-02-22T06:08:51.053Z,4.58
2023-02-22T06:11:17.722Z,4.54
2023-02-22T06:13:49.435Z,4.50
2023-02-22T06:16:15.763Z,4.60
2023-02-22T06:18:42.060Z,4.56
2023-02-22T06:21:09.710Z,4.54
2023-02-22T06:23:36.033Z,4.74
2023-02-22T06:26:02.324Z,4.78
2023-02-22T06:28:28.616Z,4.77
2023-02-22T06:30:54.891Z,4.96
2023-02-22T06:33:21.236Z,5.02
2023-02-22T06:35:47.564Z,4.95
2023-02-22T06:38:21.034Z,4.96
2023-02-22T06:40:47.414Z,5.01
2023-02-22T06:43:13.723Z,5.06
2023-02-22T06:45:39.982Z,5.06
2023-02-22T06:48:06.309Z,5.16
2023-02-22T06:50:35.528Z,5.06
2023-02-22T06:53:02.169Z,5.16
2023-02-22T06:55:31.809Z,5.17
2023-02-22T06:57:58.805Z,5.18
2023-02-22T07:00:26.698Z,5.24
2023-02-22T07:02:54.601Z,5.18
2023-02-22T07:05:23.060Z,5.10
2023-02-22T07:07:50.985Z,4.99
2023-02-22T07:10:21.074Z,5.04
2023-02-22T07:12:47.671Z,5.07
2023-02-22T07:15:14.140Z,5.11
2023-02-22T07:17:40.538Z,5.18
2023-02-22T07:20:08.237Z,5.18
2023-02-22T07:22:34.512Z,5.17
2023-02-22T07:25:00.843Z,5.18
2023-02-22T07:27:27.134Z,5.21
2023-02-22T07:29:53.408Z,5.18
2023-02-22T07:32:19.770Z,5.34
2023-02-22T07:34:46.134Z,5.47
2023-02-22T07:37:12.385Z,5.48
2023-02-22T07:39:38.661Z,5.60
2023-02-22T07:42:05.014Z,5.74
2023-02-22T07:44:31.308Z,5.68
2023-02-22T07:46:57.580Z,5.64
2023-02-22T07:49:23.899Z,5.80
2023-02-22T07:51:50.218Z,5.81
2023-02-22T07:54:16.518Z,5.94
2023-02-22T07:56:47.748Z,5.95
2023-02-22T07:59:15.184Z,6.05
2023-02-22T08:01:42.103Z,6.15
2023-02-22T08:04:08.515Z,6.18
2023-02-22T08:06:34.792Z,6.24
2023-02-22T08:09:01.064Z,6.31
2023-02-22T08:11:27.355Z,6.23
2023-02-22T08:13:53.659Z,6.11
2023-02-22T08:16:19.943Z,6.11
2023-02-22T08:18:46.249Z,6.10
2023-02-22T08:21:12.499Z,6.15
2023-02-22T08:23:38.763Z,6.23
2023-02-22T08:26:10.564Z,6.28
2023-02-22T08:28:36.832Z,6.23
2023-02-22T08:31:03.191Z,6.17
2023-02-22T08:33:29.501Z,6.18
2023-02-22T08:35:55.790Z,6.24
2023-02-22T08:38:28.303Z,6.26
2023-02-22T08:40:54.722Z,6.22
2023-02-22T08:43:21.979Z,6.19
2023-02-22T08:45:48.930Z,6.19
2023-02-22T08:48:16.552Z,6.00
2023-02-22T08:50:42.772Z,6.01
2023-02-22T08:53:10.562Z,6.10
2023-02-22T08:55:38.903Z,6.11
2023-02-22T08:58:06.543Z,6.14
2023-02-22T09:00:33.761Z,6.06
2023-02-22T09:03:01.565Z,6.16
2023-02-22T09:05:30.917Z,6.28
2023-02-22T09:07:57.820Z,6.25
2023-02-22T09:10:26.900Z,6.33
2023-02-22T09:12:54.486Z,6.39
2023-02-22T09:15:21.465Z,6.42
2023-02-22T09:17:48.160Z,6.59
2023-02-22T09:20:17.384Z,6.46
2023-02-22T09:22:45.592Z,6.53
2023-02-22T09:25:17.062Z,6.62
2023-02-22T09:27:46.626Z,6.55
2023-02-22T09:30:19.256Z,6.69
2023-02-22T09:32:45.802Z,6.77
2023-02-22T09:35:12.177Z,6.74
2023-02-22T09:37:38.490Z,6.70
2023-02-22T09:40:05.296Z,6.72
2023-02-22T09:42:39.486Z,6.82
2023-02-22T09:45:19.667Z,6.96
2023-02-22T09:47:52.506Z,7.05
2023-02-22T09:50:28.974Z,7.09
2023-02-22T09:53:19.865Z,7.12
2023-02-22T09:55:50.575Z,7.12
2023-02-22T09:58:34.048Z,7.04
2023-02-22T10:01:25.896Z,7.17
2023-02-22T10:03:52.119Z,7.28
2023-02-22T10:06:22.346Z,7.33
2023-02-22T10:08:50.109Z,7.39
2023-02-22T10:11:46.484Z,7.50
2023-02-22T10:14:34.581Z,7.57
2023-02-22T10:17:19.400Z,7.54
2023-02-22T10:20:16.732Z,7.64
2023-02-22T10:23:03.648Z,7.59
2023-02-22T10:25:35.071Z,7.72
2023-02-22T10:28:04.609Z,7.87
2023-02-22T10:30:35.303Z,7.83
2023-02-22T10:33:12.314Z,7.80
2023-02-22T10:35:39.612Z,7.90
2023-02-22T10:38:22.977Z,7.74
2023-02-22T10:40:55.868Z,7.71
2023-02-22T10:43:22.574Z,7.91
2023-02-22T10:45:53.083Z,7.82
2023-02-22T10:48:21.257Z,7.86
2023-02-22T10:50:47.906Z,7.87
2023-02-22T10:53:15.232Z,7.99
2023-02-22T10:56:06.557Z,8.17
2023-02-22T10:58:53.647Z,8.21
2023-02-22T11:01:32.330Z,8.45
2023-02-22T11:04:02.055Z,8.31
2023-02-22T11:06:29.018Z,8.40
2023-02-22T11:09:10.725Z,8.37
2023-02-22T11:11:39.521Z,8.20
2023-02-22T11:14:06.733Z,8.23
2023-02-22T11:16:36.819Z,8.21
2023-02-22T11:19:10.683Z,8.32
2023-02-22T11:21:37.331Z,8.40
2023-02-22T11:24:07.256Z,8.56
2023-02-22T11:26:39.689Z,8.61
2023-02-22T11:29:22.114Z,8.65
2023-02-22T11:31:49.381Z,8.53
2023-02-22T11:34:27.660Z,8.60
2023-02-22T11:36:53.944Z,8.79
2023-02-22T11:39:32.647Z,8.83
2023-02-22T11:42:20.364Z,8.82
2023-02-22T11:44:46.616Z,8.84
2023-02-22T11:47:12.864Z,8.99
2023-02-22T11:49:42.984Z,9.01
2023-02-22T11:52:33.044Z,9.04
2023-02-22T11:55:26.775Z,9.09
2023-02-22T11:58:26.632Z,9.00
2023-02-22T12:00:57.107Z,9.18
2023-02-22T12:03:41.920Z,9.07
2023-02-22T12:06:28.182Z,8.99
2023-02-22T12:09:14.832Z,8.97
2023-02-22T12:12:03.958Z,8.95
2023-02-22T12:15:10.730Z,9.13
2023-02-22T12:18:00.364Z,9.12
2023-02-22T12:20:44.972Z,9.07
2023-02-22T12:23:28.784Z,9.05
2023-02-22T12:26:35.989Z,8.91
2023-02-22T12:29:35.817Z,8.90
2023-02-22T12:32:14.065Z,8.83
2023-02-22T12:34:48.197Z,8.74
2023-02-22T12:37:21.331Z,8.72
2023-02-22T12:40:24.825Z,8.77
2023-02-22T12:43:08.376Z,8.87
2023-02-22T12:45:58.026Z,8.84
2023-02-22T12:48:48.526Z,8.96
2023-02-22T12:51:29.969Z,8.90
2023-02-22T12:54:10.392Z,8.90
2023-02-22T12:57:03.137Z,8.90
2023-02-22T12:59:36.201Z,8.75
2023-02-22T13:02:14.480Z,8.82
2023-02-22T13:04:41.012Z,8.82
2023-02-22T13:07:36.446Z,8.87
2023-02-22T13:10:35.149Z,8.97
2023-02-22T13:13:18.101Z,8.98
2023-02-22T13:16:03.137Z,8.97
2023-02-22T13:18:40.506Z,9.05
2023-02-22T13:21:14.882Z,8.82
2023-02-22T13:23:47.275Z,8.87
2023-02-22T13:26:28.470Z,9.00
2023-02-22T13:29:12.840Z,8.92
2023-02-22T13:32:08.267Z,9.03
2023-02-22T13:34:59.305Z,9.11
2023-02-22T13:37:53.970Z,9.15
2023-02-22T13:40:55.648Z,8.98
2023-02-22T13:43:55.856Z,9.03
2023-02-22T13:46:36.922Z,8.99
2023-02-22T13:49:03.129Z,8.93
2023-02-22T13:51:44.039Z,8.96
2023-02-22T13:54:13.336Z,8.90
2023-02-22T13:56:44.390Z,8.96
2023-02-22T13:59:36.362Z,9.02
2023-02-22T14:02:05.201Z,9.05
2023-02-22T14:04:31.396Z,8.99
2023-02-22T14:07:22.356Z,8.98
2023-02-22T14:09:54.127Z,8.88
2023-02-22T14:12:29.554Z,9.07
2023-02-22T14:15:32.975Z,9.08
2023-02-22T14:18:01.459Z,9.11
2023-02-22T14:20:34.946Z,9.14
2023-02-22T14:23:23.512Z,9.05
2023-02-22T14:25:50.952Z,9.03
2023-02-22T14:29:12.781Z,8.98
2023-02-22T14:31:41.900Z,9.00
2023-02-22T14:34:11.219Z,8.96
2023-02-22T14:36:40.620Z,8.84
2023-02-22T14:39:18.836Z,8.73
2023-02-22T14:41:58.369Z,8.75
2023-02-22T14:44:27.448Z,8.73
2023-02-22T14:46:57.986Z,8.77
2023-02-22T14:49:30.310Z,8.68
2023-02-22T14:52:07.538Z,8.72
2023-02-22T14:54:56.477Z,8.73
2023-02-22T14:57:29.836Z,8.70
2023-02-22T15:00:07.150Z,8.67
2023-02-22T15:02:40.515Z,8.64
2023-02-22T15:05:07.003Z,8.60
2023-02-22T15:07:33.266Z,8.67
2023-02-22T15:10:18.248Z,8.64
2023-02-22T15:13:02.214Z,8.61
2023-02-22T15:15:30.825Z,8.56
2023-02-22T15:17:57.691Z,8.62
2023-02-22T15:20:25.492Z,8.61
2023-02-22T15:22:57.908Z,8.64
2023-02-22T15:25:27.535Z,8.54
2023-02-22T15:27:59.729Z,8.58
2023-02-22T15:30:29.537Z,8.56
2023-02-22T15:33:04.075Z,8.46
2023-02-22T15:35:31.932Z,8.48
2023-02-22T15:38:04.572Z,8.45
2023-02-22T15:40:30.880Z,8.44
2023-02-22T15:42:57.359Z,8.40
2023-02-22T15:45:25.447Z,8.42
2023-02-22T15:47:53.156Z,8.35
2023-02-22T15:50:31.246Z,8.31
2023-02-22T15:53:23.569Z,8.35
2023-02-22T15:55:57.298Z,8.26
2023-02-22T15:58:26.428Z,8.24
2023-02-22T16:01:07.663Z,8.14
2023-02-22T16:03:41.581Z,8.12
2023-02-22T16:06:10.759Z,8.10
2023-02-22T16:08:59.064Z,8.03
2023-02-22T16:11:38.334Z,7.98
2023-02-22T16:14:22.765Z,7.93
2023-02-22T16:16:49.081Z,7.92
2023-02-22T16:19:32.032Z,7.94
2023-02-22T16:22:01.329Z,7.84
2023-02-22T16:24:31.280Z,7.82
2023-02-22T16:27:12.759Z,7.85
2023-02-22T16:29:39.126Z,7.82
2023-02-22T16:32:05.499Z,7.79
2023-02-22T16:34:31.841Z,7.81
2023-02-22T16:36:58.353Z,7.81
2023-02-22T16:39:27.596Z,7.79
2023-02-22T16:41:56.753Z,7.77
2023-02-22T16:44:23.779Z,7.73
2023-02-22T16:46:50.424Z,7.71
2023-02-22T16:49:16.764Z,7.71
2023-02-22T16:51:52.504Z,7.66
2023-02-22T16:54:27.492Z,7.67
2023-02-22T16:56:56.754Z,7.63
2023-02-22T16:59:23.081Z,7.66
2023-02-22T17:01:49.521Z,7.62
2023-02-22T17:04:21.771Z,7.51
2023-02-22T17:06:48.479Z,7.56
2023-02-22T17:09:15.336Z,7.57
2023-02-22T17:11:43.141Z,7.48
2023-02-22T17:14:13.078Z,7.50
2023-02-22T17:16:39.374Z,7.43
2023-02-22T17:19:15.144Z,7.38
2023-02-22T17:21:41.449Z,7.44
2023-02-22T17:24:12.097Z,7.40
2023-02-22T17:26:38.483Z,7.38
2023-02-22T17:29:04.989Z,7.33
2023-02-22T17:31:31.730Z,7.30
2023-02-22T17:34:01.684Z,7.26
2023-02-22T17:36:32.171Z,7.24
2023-02-22T17:38:59.625Z,7.13
2023-02-22T17:41:26.030Z,7.14
2023-02-22T17:43:52.353Z,7.13
2023-02-22T17:46:18.980Z,7.07
2023-02-22T17:48:45.976Z,7.05
2023-02-22T17:51:12.480Z,7.01
2023-02-22T17:53:38.948Z,6.98
2023-02-22T17:56:10.591Z,6.88
2023-02-22T17:58:36.959Z,6.83
2023-02-22T18:01:03.967Z,6.90
2023-02-22T18:03:30.891Z,6.82
2023-02-22T18:05:59.831Z,6.70
2023-02-22T18:08:28.889Z,6.72
2023-02-22T18:10:55.575Z,6.72
2023-02-22T18:13:23.735Z,6.62
2023-02-22T18:15:50.388Z,6.56
2023-02-22T18:18:17.307Z,6.54
2023-02-22T18:20:45.297Z,6.54
2023-02-22T18:23:17.549Z,6.54
2023-02-22T18:26:03.735Z,6.33
2023-02-22T18:28:35.267Z,6.30
2023-02-22T18:31:07.099Z,6.22
2023-02-22T18:33:33.390Z,6.09
2023-02-22T18:35:59.710Z,6.11
2023-02-22T18:38:25.994Z,5.99
2023-02-22T18:41:00.550Z,6.02
2023-02-22T18:43:27.585Z,6.08
2023-02-22T18:45:54.730Z,6.05
2023-02-22T18:48:21.066Z,6.05
2023-02-22T18:50:47.448Z,5.97
2023-02-22T18:53:13.792Z,5.79
2023-02-22T18:55:40.301Z,5.86
2023-02-22T18:58:06.571Z,5.86
2023-02-22T19:00:34.674Z,5.89
2023-02-22T19:03:01.055Z,5.90
2023-02-22T19:05:27.330Z,5.82
2023-02-22T19:07:53.605Z,5.81
2023-02-22T19:10:19.935Z,5.84
2023-02-22T19:12:46.223Z,5.78
2023-02-22T19:15:12.511Z,5.80
2023-02-22T19:17:40.163Z,5.79
2023-02-22T19:20:07.653Z,5.70
2023-02-22T19:22:33.954Z,5.77
2023-02-22T19:25:00.371Z,5.71
2023-02-22T19:27:28.256Z,5.71
2023-02-22T19:29:54.535Z,5.68
2023-02-22T19:32:20.951Z,5.62
2023-02-22T19:34:47.372Z,5.54
2023-02-22T19:37:13.760Z,5.52
2023-02-22T19:39:40.166Z,5.47
2023-02-22T19:42:06.441Z,5.42
2023-02-22T19:44:32.723Z,5.38
2023-02-22T19:46:59.086Z,5.31
2023-02-22T19:51:52.597Z,5.30
2023-02-22T19:54:19.093Z,5.17
2023-02-22T19:56:45.499Z,5.18
2023-02-22T19:59:11.782Z,5.08
2023-02-22T20:01:38.106Z,5.07
2023-02-22T20:04:08.229Z,5.15
